Time;durP1;ratioP1;P1;durP2;ratioP2;P2;SDS_P1;SDS_P2;PMS_P1;PMS_P2;Temp;Humidity;BMP_temperature;BMP_pressure;BME280_temperature;BME280_humidity;BME280_pressure;Samples;Min_cycle;Max_cycle;Signal;HPM_P1;HPM_P2
2022/12/21 07:53:50;;;;;;;;;;;;;;;5.36;92.30;97917.28;5894643;23;19941;-65
2022/12/21 07:56:17;;;;;;;;;;;;;;;5.39;92.47;97921.50;4857815;29;19923;-66
2022/12/21 07:58:42;;;;;;;;;;;;;;;5.41;92.40;97923.09;4859242;29;19916;-66
2022/12/21 08:01:11;;;;;;;;;;;;;;;5.43;92.65;97917.81;4858360;29;19945;-66
2022/12/21 08:03:36;;;;;;;;;;;;;;;5.46;92.31;97913.28;4857996;29;19923;-67
2022/12/21 08:06:02;;;;;;;;;;;;;;;5.48;92.92;97921.88;4858555;29;19920;-67
2022/12/21 08:08:27;;;;;;;;;;;;;;;5.52;92.70;97921.69;4853803;29;19968;-67
2022/12/21 08:10:52;;;;;;;;;;;;;;;5.53;93.01;97920.78;4856672;29;20514;-67
2022/12/21 08:13:17;;;;;;;;;;;;;;;5.53;93.36;97929.41;4859850;29;20300;-67
2022/12/21 08:15:42;;;;;;;;;;;;;;;5.54;92.84;97925.03;4857353;29;20300;-67
2022/12/21 08:18:08;;;;;;;;;;;;;;;5.56;93.01;97934.47;4858111;29;20287;-67
2022/12/21 08:20:33;;;;;;;;;;;;;;;5.58;93.25;97926.59;4856680;29;19924;-67
2022/12/21 08:22:58;;;;;;;;;;;;;;;5.60;92.99;97935.97;4859663;29;19912;-67
2022/12/21 08:25:24;;;;;;;;;;;;;;;5.63;93.26;97935.81;4857461;29;20332;-67
2022/12/21 08:27:50;;;;;;;;;;;;;;;5.64;92.69;97923.63;4859860;29;19912;-67
2022/12/21 08:30:15;;;;;;;;;;;;;;;5.66;92.72;97924.41;4854178;29;19964;-68
2022/12/21 08:32:40;;;;;;;;;;;;;;;5.70;92.71;97925.91;4857213;29;19919;-68
2022/12/21 08:35:05;;;;;;;;;;;;;;;5.71;93.21;97927.59;4857976;29;19919;-68
2022/12/21 08:37:31;;;;;;;;;;;;;;;5.72;93.00;97913.69;4873767;29;19912;-68
2022/12/21 08:39:56;;;;;;;;;;;;;;;5.74;92.91;97937.84;4857955;29;19930;-68
2022/12/21 08:42:21;;;;;;;;;;;;;;;5.76;93.23;97909.16;4854550;29;19916;-68
2022/12/21 08:44:48;;;;;;;;;;;;;;;5.77;93.56;97940.28;4857033;29;19920;-68
2022/12/21 08:47:13;;;;;;;;;;;;;;;5.78;93.54;97935.91;4859738;29;20456;-66
2022/12/21 08:49:38;;;;;;;;;;;;;;;5.79;93.88;97930.66;4857775;29;19912;-67
2022/12/21 08:52:03;;;;;;;;;;;;;;;5.82;93.77;97940.91;4856885;29;19916;-65
2022/12/21 08:54:28;;;;;;;;;;;;;;;5.85;94.16;97938.13;4854979;29;19941;-67
2022/12/21 08:56:54;;;;;;;;;;;;;;;5.87;93.54;97931.06;4857520;29;19922;-70
2022/12/21 08:59:19;;;;;;;;;;;;;;;5.91;92.84;97935.19;4858546;29;19924;-68
2022/12/21 09:01:44;;;;;;;;;;;;;;;5.94;93.02;97931.59;4857169;29;19912;-68
2022/12/21 09:04:09;;;;;;;;;;;;;;;5.99;92.68;97931.34;4858113;29;20408;-67
2022/12/21 09:06:35;;;;;;;;;;;;;;;6.03;92.67;97938.09;4858621;29;20361;-65
2022/12/21 09:09:00;;;;;;;;;;;;;;;6.06;91.74;97932.72;4858068;29;19970;-66
2022/12/21 09:11:27;;;;;;;;;;;;;;;6.09;92.14;97932.53;4855987;29;19948;-66
2022/12/21 09:13:52;;;;;;;;;;;;;;;6.11;92.10;97936.72;4859013;29;20368;-69
2022/12/21 09:16:22;;;;;;;;;;;;;;;6.14;92.29;97931.38;4858666;29;19919;-69
2022/12/21 09:18:47;;;;;;;;;;;;;;;6.17;92.43;97940.78;4859411;29;19964;-70
2022/12/21 09:21:13;;;;;;;;;;;;;;;6.18;91.77;97940.69;4856158;29;19919;-69
2022/12/21 09:23:38;;;;;;;;;;;;;;;6.21;92.01;97942.28;4856943;29;19948;-69
2022/12/21 09:26:04;;;;;;;;;;;;;;;6.24;92.07;97936.91;4857164;29;19912;-64
2022/12/21 09:28:29;;;;;;;;;;;;;;;6.27;92.63;97935.91;4857589;29;19959;-63
2022/12/21 09:30:55;;;;;;;;;;;;;;;6.29;92.14;97937.47;4857507;29;19928;-68
2022/12/21 09:33:23;;;;;;;;;;;;;;;6.32;91.93;97939.09;4859425;29;19998;-70
2022/12/21 09:35:50;;;;;;;;;;;;;;;6.35;92.55;97929.34;4859256;29;19912;-66
2022/12/21 09:38:15;;;;;;;;;;;;;;;6.36;92.45;97936.22;4858193;29;20387;-68
2022/12/21 09:40:40;;;;;;;;;;;;;;;6.38;92.93;97917.91;4857899;29;19920;-66
2022/12/21 09:43:26;;;;;;;;;;;;;;;6.39;92.89;97930.84;4855568;29;19927;-65
2022/12/21 09:46:05;;;;;;;;;;;;;;;6.39;92.68;97936.03;4871259;29;19916;-66
2022/12/21 09:48:31;;;;;;;;;;;;;;;6.42;92.92;97935.03;4849794;29;19912;-66
2022/12/21 09:51:06;;;;;;;;;;;;;;;6.42;92.77;97925.44;4849691;29;19927;-67
2022/12/21 09:53:31;;;;;;;;;;;;;;;6.43;92.43;97928.91;4868819;29;19912;-66
2022/12/21 09:55:57;;;;;;;;;;;;;;;6.45;92.92;97932.25;4858920;29;20008;-68
2022/12/21 09:58:24;;;;;;;;;;;;;;;6.45;92.49;97928.81;4860079;29;19916;-67
2022/12/21 10:00:51;;;;;;;;;;;;;;;6.46;92.74;97920.06;4860511;29;20006;-66
2022/12/21 10:03:28;;;;;;;;;;;;;;;6.47;92.67;97913.94;4874222;29;19950;-67
2022/12/21 10:06:08;;;;;;;;;;;;;;;6.49;92.15;97925.13;4858665;29;20336;-69
2022/12/21 10:08:39;;;;;;;;;;;;;;;6.51;92.53;97918.91;4858349;29;20004;-66
2022/12/21 10:11:13;;;;;;;;;;;;;;;6.53;92.50;97918.81;4856845;29;19916;-66
2022/12/21 10:13:47;;;;;;;;;;;;;;;6.57;92.34;97910.75;4859614;29;19916;-66
2022/12/21 10:16:31;;;;;;;;;;;;;;;6.60;92.10;97912.31;4858914;29;20396;-67
2022/12/21 10:18:58;;;;;;;;;;;;;;;6.62;92.67;97919.13;4856657;29;19920;-67
2022/12/21 10:21:44;;;;;;;;;;;;;;;6.64;92.65;97919.03;4854025;29;19927;-67
2022/12/21 10:24:20;;;;;;;;;;;;;;;6.66;92.45;97917.19;4853642;29;20404;-66
2022/12/21 10:26:45;;;;;;;;;;;;;;;6.68;91.93;97920.56;4858660;29;19916;-66
2022/12/21 10:29:11;;;;;;;;;;;;;;;6.69;92.56;97914.41;4875419;29;20018;-66
2022/12/21 10:31:38;;;;;;;;;;;;;;;6.71;92.28;97911.69;4871747;29;19916;-66
2022/12/21 10:34:07;;;;;;;;;;;;;;;6.72;92.73;97906.41;4873879;29;20252;-67
2022/12/21 10:36:36;;;;;;;;;;;;;;;6.77;92.79;97913.94;4873984;29;19951;-67
2022/12/21 10:39:01;;;;;;;;;;;;;;;6.81;92.42;97905.88;4858657;29;20086;-67
2022/12/21 10:41:27;;;;;;;;;;;;;;;6.87;93.07;97909.88;4860561;29;19924;-68
2022/12/21 10:43:53;;;;;;;;;;;;;;;6.91;92.80;97906.16;4871456;29;19916;-67
2022/12/21 10:46:18;;;;;;;;;;;;;;;6.96;92.75;97903.31;4851730;29;19923;-67
2022/12/21 10:48:44;;;;;;;;;;;;;;;7.00;92.82;97905.63;4860254;29;19920;-67
2022/12/21 10:51:12;;;;;;;;;;;;;;;7.04;92.70;97906.28;4859632;29;20356;-67
2022/12/21 10:53:38;;;;;;;;;;;;;;;7.06;91.84;97896.63;4855592;29;20308;-67
2022/12/21 10:56:03;;;;;;;;;;;;;;;7.08;92.46;97903.41;4856452;29;19920;-67
2022/12/21 10:58:29;;;;;;;;;;;;;;;7.11;92.48;97900.63;4857724;29;19931;-67
2022/12/21 11:00:56;;;;;;;;;;;;;;;7.13;91.90;97900.53;4873740;29;19920;-67
2022/12/21 11:03:29;;;;;;;;;;;;;;;7.16;92.54;97905.59;4873684;29;19916;-68
2022/12/21 11:05:54;;;;;;;;;;;;;;;7.17;92.35;97899.44;4856256;29;19927;-68
2022/12/21 11:08:29;;;;;;;;;;;;;;;7.20;92.68;97899.25;4857502;29;19916;-68
2022/12/21 11:10:58;;;;;;;;;;;;;;;7.22;92.45;97897.38;4873684;29;20425;-67
2022/12/21 11:13:25;;;;;;;;;;;;;;;7.24;91.92;97898.13;4858744;29;19920;-67
2022/12/21 11:16:00;;;;;;;;;;;;;;;7.25;92.68;97894.56;4871179;29;19971;-68
2022/12/21 11:18:28;;;;;;;;;;;;;;;7.27;92.04;97903.16;4859102;29;19916;-67
2022/12/21 11:20:53;;;;;;;;;;;;;;;7.29;92.23;97896.06;4859738;29;20407;-68
2022/12/21 11:23:19;;;;;;;;;;;;;;;7.32;92.66;97892.44;4857828;29;19923;-68
2022/12/21 11:25:44;;;;;;;;;;;;;;;7.34;93.09;97888.81;4872850;29;19916;-67
2022/12/21 11:28:09;;;;;;;;;;;;;;;7.37;92.76;97886.03;4873144;29;19963;-68
2022/12/21 11:30:35;;;;;;;;;;;;;;;7.38;92.76;97879.88;4873652;29;19920;-68
2022/12/21 11:33:00;;;;;;;;;;;;;;;7.42;93.48;97884.91;4858762;29;19924;-67
2022/12/21 11:35:26;;;;;;;;;;;;;;;7.45;92.71;97884.72;4857747;29;20312;-68
2022/12/21 11:37:55;;;;;;;;;;;;;;;7.46;93.18;97881.16;4856657;29;19947;-68
2022/12/21 11:40:22;;;;;;;;;;;;;;;7.49;93.39;97866.16;4873601;29;20018;-68
2022/12/21 11:42:59;;;;;;;;;;;;;;;7.53;93.08;97872.03;4859559;29;19916;-67
2022/12/21 11:45:25;;;;;;;;;;;;;;;7.59;93.03;97874.28;4855432;29;19924;-67
2022/12/21 11:47:53;;;;;;;;;;;;;;;7.66;93.33;97872.94;4854777;29;19920;-67
2022/12/21 11:50:24;;;;;;;;;;;;;;;7.73;93.25;97871.63;4858196;29;20285;-68
2022/12/21 11:52:53;;;;;;;;;;;;;;;7.81;93.00;97865.94;4873277;29;19916;-67
2022/12/21 11:55:22;;;;;;;;;;;;;;;7.89;93.45;97868.09;4857801;29;19916;-68
2022/12/21 11:57:47;;;;;;;;;;;;;;;8.00;93.00;97870.84;4857051;29;19916;-68
2022/12/21 12:00:12;;;;;;;;;;;;;;;8.13;92.37;97869.13;4857925;29;19931;-68
2022/12/21 12:02:38;;;;;;;;;;;;;;;8.25;92.05;97873.56;4859136;29;20368;-68
2022/12/21 12:05:21;;;;;;;;;;;;;;;8.40;91.73;97871.78;4859309;29;19920;-67
2022/12/21 12:07:49;;;;;;;;;;;;;;;8.53;91.62;97869.19;4856745;29;19923;-67
2022/12/21 12:10:14;;;;;;;;;;;;;;;8.61;91.29;97861.69;4857188;29;19946;-68
2022/12/21 12:12:40;;;;;;;;;;;;;;;8.69;91.25;97862.00;4858813;29;20407;-68
2022/12/21 12:15:23;;;;;;;;;;;;;;;8.75;90.81;97861.59;4858287;29;19927;-69
2022/12/21 12:17:52;;;;;;;;;;;;;;;8.79;90.54;97862.25;4872811;29;19919;-68
2022/12/21 12:20:35;;;;;;;;;;;;;;;8.78;90.58;97864.03;4856204;29;19920;-68
2022/12/21 12:23:19;;;;;;;;;;;;;;;8.74;90.53;97857.34;4855594;29;20059;-67
2022/12/21 12:26:04;;;;;;;;;;;;;;;8.73;90.66;97860.88;4857389;29;19916;-68
2022/12/21 12:28:32;;;;;;;;;;;;;;;8.72;90.54;97853.97;4857050;29;19924;-68
2022/12/21 12:31:07;;;;;;;;;;;;;;;8.70;90.76;97853.22;4853728;29;19939;-67
2022/12/21 12:33:37;;;;;;;;;;;;;;;8.71;90.52;97854.09;4857183;29;19916;-67
2022/12/21 12:36:21;;;;;;;;;;;;;;;8.70;90.69;97858.44;4873046;29;19916;-68
2022/12/21 12:38:52;;;;;;;;;;;;;;;8.76;90.36;97852.81;4872399;29;20402;-67
2022/12/21 12:41:23;;;;;;;;;;;;;;;8.80;90.38;97845.59;4856901;29;19919;-68
2022/12/21 12:43:54;;;;;;;;;;;;;;;8.87;89.68;97851.25;4857078;29;19916;-67
2022/12/21 12:46:23;;;;;;;;;;;;;;;8.87;89.56;97840.81;4873022;29;19945;-68
2022/12/21 12:49:14;;;;;;;;;;;;;;;8.89;89.63;97844.16;4872691;29;19996;-67
2022/12/21 12:51:46;;;;;;;;;;;;;;;8.93;89.44;97843.00;4856826;29;19916;-68
2022/12/21 12:54:17;;;;;;;;;;;;;;;9.04;89.11;97843.09;4856439;29;19916;-68
2022/12/21 12:56:45;;;;;;;;;;;;;;;9.10;88.81;97847.09;4858546;29;19973;-67
2022/12/21 12:59:19;;;;;;;;;;;;;;;9.10;88.86;97842.69;4857294;29;20444;-68
2022/12/21 13:01:51;;;;;;;;;;;;;;;9.16;88.76;97838.84;4854384;29;20439;-69
2022/12/21 13:04:33;;;;;;;;;;;;;;;9.23;87.98;97838.31;4854701;29;19972;-67
2022/12/21 13:07:03;;;;;;;;;;;;;;;9.36;88.05;97845.28;4872195;29;19916;-68
2022/12/21 13:09:38;;;;;;;;;;;;;;;9.56;87.63;97836.88;4872611;29;19919;-68
2022/12/21 13:12:12;;;;;;;;;;;;;;;9.53;87.56;97826.63;4856773;29;19920;-68
2022/12/21 13:14:40;;;;;;;;;;;;;;;9.51;87.62;97831.16;4856266;29;19923;-67
2022/12/21 13:17:24;;;;;;;;;;;;;;;9.72;87.11;97824.38;4858307;29;19976;-68
2022/12/21 13:19:49;;;;;;;;;;;;;;;9.89;86.67;97819.75;4857348;29;19921;-67
2022/12/21 13:22:15;;;;;;;;;;;;;;;10.01;86.16;97818.84;4842135;29;19928;-68
2022/12/21 13:24:45;;;;;;;;;;;;;;;10.10;85.37;97818.19;4854332;29;20467;-68
2022/12/21 13:27:14;;;;;;;;;;;;;;;10.19;85.47;97812.28;4856867;29;20104;-68
2022/12/21 13:30:05;;;;;;;;;;;;;;;10.32;83.88;97819.25;4856019;29;20056;-68
2022/12/21 13:32:38;;;;;;;;;;;;;;;10.38;83.87;97824.06;4857223;29;19915;-70
2022/12/21 13:35:16;;;;;;;;;;;;;;;10.47;84.36;97819.94;4843404;29;19932;-67
2022/12/21 13:37:41;;;;;;;;;;;;;;;10.50;83.72;97825.78;4855955;29;19916;-68
2022/12/21 13:40:13;;;;;;;;;;;;;;;10.35;84.17;97829.53;4873808;29;19926;-69
2022/12/21 13:43:08;;;;;;;;;;;;;;;10.18;84.83;97830.72;4873020;29;19919;-67
2022/12/21 13:45:36;;;;;;;;;;;;;;;10.01;85.35;97829.31;4839301;29;20051;-67
2022/12/21 13:48:02;;;;;;;;;;;;;;;9.99;85.69;97829.44;4841130;29;19916;-67
2022/12/21 13:50:33;;;;;;;;;;;;;;;9.88;85.89;97823.31;4841383;29;20277;-67
2022/12/21 13:53:14;;;;;;;;;;;;;;;9.80;86.43;97833.47;4824853;29;19927;-70
2022/12/21 13:55:55;;;;;;;;;;;;;;;9.68;86.11;97838.66;4824305;29;19923;-67
2022/12/21 13:58:26;;;;;;;;;;;;;;;9.61;86.76;97832.19;4838194;29;19995;-67
2022/12/21 14:00:53;;;;;;;;;;;;;;;9.71;86.09;97827.97;4808406;29;19924;-67
2022/12/21 14:03:36;;;;;;;;;;;;;;;9.74;86.04;97830.38;4825102;29;19916;-67
2022/12/21 14:06:01;;;;;;;;;;;;;;;9.67;86.10;97825.66;4839717;29;19912;-67
2022/12/21 14:08:27;;;;;;;;;;;;;;;9.56;86.74;97829.03;4839918;29;19923;-67
2022/12/21 14:10:57;;;;;;;;;;;;;;;9.42;87.29;97826.56;4838973;29;19916;-67
2022/12/21 14:13:28;;;;;;;;;;;;;;;9.38;87.70;97825.09;4838215;29;19924;-67
2022/12/21 14:16:00;;;;;;;;;;;;;;;9.34;87.61;97824.47;4839886;29;20011;-68
2022/12/21 14:18:35;;;;;;;;;;;;;;;9.26;88.40;97819.78;4837872;29;19912;-67
2022/12/21 14:21:21;;;;;;;;;;;;;;;9.20;88.41;97822.81;4808211;29;19921;-67
2022/12/21 14:23:47;;;;;;;;;;;;;;;9.13;89.02;97824.19;4846585;29;19955;-68
2022/12/21 14:26:31;;;;;;;;;;;;;;;9.09;89.08;97825.34;4875518;29;19922;-68
2022/12/21 14:29:00;;;;;;;;;;;;;;;9.06;89.43;97824.72;4871569;29;20407;-68
2022/12/21 14:31:26;;;;;;;;;;;;;;;9.02;89.57;97830.16;4874442;29;19920;-66
2022/12/21 14:33:54;;;;;;;;;;;;;;;9.03;89.88;97830.97;4873718;29;19911;-67
2022/12/21 14:36:19;;;;;;;;;;;;;;;9.00;89.98;97831.19;4875123;29;19938;-67
2022/12/21 14:39:00;;;;;;;;;;;;;;;8.97;89.90;97836.63;4859487;29;20364;-67
2022/12/21 14:41:31;;;;;;;;;;;;;;;8.93;90.37;97837.78;4858057;29;20003;-67
2022/12/21 14:44:09;;;;;;;;;;;;;;;8.91;90.21;97847.50;4857206;29;19923;-68
2022/12/21 14:46:34;;;;;;;;;;;;;;;8.86;90.32;97839.97;4857868;29;19920;-66
2022/12/21 14:49:22;;;;;;;;;;;;;;;8.83;90.75;97840.16;4860212;29;19911;-70
2022/12/21 14:51:48;;;;;;;;;;;;;;;8.82;91.12;97848.13;4855671;29;19924;-67
2022/12/21 14:54:13;;;;;;;;;;;;;;;8.79;90.85;97849.16;4859309;29;19923;-67
2022/12/21 14:56:38;;;;;;;;;;;;;;;8.77;91.66;97840.56;4859749;29;19920;-67
2022/12/21 14:59:04;;;;;;;;;;;;;;;8.75;91.80;97842.47;4859221;29;20376;-70
2022/12/21 15:01:33;;;;;;;;;;;;;;;8.73;91.69;97850.41;4852392;29;21730;-66
2022/12/21 15:04:13;;;;;;;;;;;;;;;8.70;92.46;97845.38;4852992;29;19912;-67
2022/12/21 15:06:39;;;;;;;;;;;;;;;8.67;92.78;97850.84;4860116;29;19923;-67
2022/12/21 15:09:20;;;;;;;;;;;;;;;8.64;92.71;97845.81;4856412;29;20002;-67
2022/12/21 15:11:46;;;;;;;;;;;;;;;8.62;93.09;97858.13;4858698;29;19916;-67
2022/12/21 15:14:21;;;;;;;;;;;;;;;8.59;92.77;97858.31;4864666;29;19919;-68
2022/12/21 15:16:46;;;;;;;;;;;;;;;8.56;93.13;97854.13;4874358;29;20391;-68
2022/12/21 15:19:12;;;;;;;;;;;;;;;8.55;93.17;97857.69;4858295;29;19916;-69
2022/12/21 15:21:44;;;;;;;;;;;;;;;8.53;93.73;97856.09;4854481;29;20450;-67
2022/12/21 15:24:18;;;;;;;;;;;;;;;8.51;93.83;97850.16;4854373;29;19915;-68
2022/12/21 15:26:49;;;;;;;;;;;;;;;8.48;93.48;97852.97;4856932;29;19912;-67
2022/12/21 15:29:19;;;;;;;;;;;;;;;8.45;93.80;97850.56;4859148;29;19928;-67
2022/12/21 15:31:45;;;;;;;;;;;;;;;8.43;93.99;97849.81;4873451;29;19927;-69
2022/12/21 15:34:12;;;;;;;;;;;;;;;8.39;93.90;97840.50;4858386;29;19951;-67
2022/12/21 15:36:39;;;;;;;;;;;;;;;8.38;94.00;97851.91;4858634;29;20519;-68
2022/12/21 15:39:05;;;;;;;;;;;;;;;8.36;94.09;97848.50;4859457;29;20400;-68
2022/12/21 15:41:51;;;;;;;;;;;;;;;8.33;94.28;97846.94;4859183;29;19912;-68
2022/12/21 15:44:22;;;;;;;;;;;;;;;8.31;94.47;97843.59;4844837;29;19912;-69
2022/12/21 15:47:06;;;;;;;;;;;;;;;8.29;94.18;97843.69;4858481;29;20395;-69
2022/12/21 15:49:31;;;;;;;;;;;;;;;8.28;94.20;97842.00;4859258;29;19912;-68
2022/12/21 15:51:57;;;;;;;;;;;;;;;8.27;94.43;97847.34;4859854;29;19912;-68
2022/12/21 15:54:23;;;;;;;;;;;;;;;8.25;94.32;97849.22;4858593;29;19996;-69
2022/12/21 15:56:52;;;;;;;;;;;;;;;8.22;94.42;97850.22;4857413;29;19916;-68
2022/12/21 15:59:39;;;;;;;;;;;;;;;8.18;94.19;97848.75;4874422;29;19916;-68
2022/12/21 16:02:18;;;;;;;;;;;;;;;8.16;94.22;97853.28;4841735;29;19916;-68
2022/12/21 16:04:43;;;;;;;;;;;;;;;8.14;93.87;97849.91;4840408;29;19921;-68
2022/12/21 16:07:11;;;;;;;;;;;;;;;8.12;94.40;97854.41;4850432;29;20292;-69
2022/12/21 16:09:36;;;;;;;;;;;;;;;8.10;93.85;97851.03;4858901;29;19939;-68
2022/12/21 16:12:02;;;;;;;;;;;;;;;8.08;94.22;97852.91;4842261;29;19973;-68
2022/12/21 16:14:31;;;;;;;;;;;;;;;8.05;93.91;97859.19;4858568;29;19955;-68
2022/12/21 16:16:56;;;;;;;;;;;;;;;8.04;93.94;97862.72;4857969;29;19916;-68
2022/12/21 16:19:24;;;;;;;;;;;;;;;8.02;93.85;97850.72;4860092;29;20402;-68
2022/12/21 16:21:50;;;;;;;;;;;;;;;8.00;93.98;97856.00;4859878;29;19955;-68
2022/12/21 16:24:15;;;;;;;;;;;;;;;7.99;94.37;97863.97;4858601;29;19995;-71
2022/12/21 16:26:42;;;;;;;;;;;;;;;7.98;94.83;97862.25;4857759;29;19923;-68
2022/12/21 16:29:09;;;;;;;;;;;;;;;7.98;94.73;97865.72;4857244;29;20300;-68
2022/12/21 16:31:34;;;;;;;;;;;;;;;7.97;94.61;97869.25;4857313;29;19970;-68
2022/12/21 16:34:00;;;;;;;;;;;;;;;7.97;94.59;97866.66;4855786;29;20690;-69
2022/12/21 16:36:25;;;;;;;;;;;;;;;7.98;94.48;97867.47;4857831;29;19912;-68
2022/12/21 16:38:50;;;;;;;;;;;;;;;7.95;95.00;97860.69;4855229;29;20324;-68
2022/12/21 16:41:16;;;;;;;;;;;;;;;7.95;94.53;97854.63;4857956;29;20312;-67
2022/12/21 16:43:45;;;;;;;;;;;;;;;7.94;94.73;97860.78;4858864;29;19912;-67
2022/12/21 16:46:11;;;;;;;;;;;;;;;7.91;94.27;97855.75;4857750;29;19916;-68
2022/12/21 16:48:46;;;;;;;;;;;;;;;7.83;94.92;97859.69;4858085;29;19971;-69
2022/12/21 16:51:30;;;;;;;;;;;;;;;7.81;94.51;97866.78;4857928;29;19916;-69
2022/12/21 16:53:55;;;;;;;;;;;;;;;7.78;94.51;97866.16;4857851;29;19916;-68
2022/12/21 16:56:26;;;;;;;;;;;;;;;7.76;94.70;97863.63;4858697;29;20333;-68
2022/12/21 16:59:01;;;;;;;;;;;;;;;7.75;95.00;97861.13;4857293;29;20550;-66
2022/12/21 17:01:39;;;;;;;;;;;;;;;7.74;95.00;97855.06;4852408;29;20277;-67
2022/12/21 17:04:14;;;;;;;;;;;;;;;7.75;95.77;97861.94;4857607;29;19916;-67
2022/12/21 17:06:40;;;;;;;;;;;;;;;7.76;95.44;97850.56;4875243;29;20006;-68
2022/12/21 17:09:06;;;;;;;;;;;;;;;7.75;95.53;97848.91;4859572;29;20460;-66
2022/12/21 17:11:32;;;;;;;;;;;;;;;7.75;95.01;97848.06;4872855;29;19916;-68
2022/12/21 17:13:57;;;;;;;;;;;;;;;7.74;95.19;97844.63;4855668;29;19916;-65
2022/12/21 17:16:39;;;;;;;;;;;;;;;7.73;95.57;97845.53;4856651;29;20114;-67
2022/12/21 17:19:25;;;;;;;;;;;;;;;7.72;95.64;97848.25;4868605;29;19955;-67
2022/12/21 17:22:03;;;;;;;;;;;;;;;7.69;95.41;97838.00;4855022;29;19920;-66
2022/12/21 17:24:35;;;;;;;;;;;;;;;7.67;94.92;97832.84;4875537;29;19920;-66
2022/12/21 17:27:02;;;;;;;;;;;;;;;7.66;95.32;97835.56;4875646;29;19923;-66
2022/12/21 17:29:27;;;;;;;;;;;;;;;7.64;95.30;97843.50;4871789;29;20441;-67
2022/12/21 17:31:52;;;;;;;;;;;;;;;7.63;95.22;97839.22;4859249;29;19924;-67
2022/12/21 17:34:21;;;;;;;;;;;;;;;7.62;95.36;97850.59;4857962;29;19972;-66
2022/12/21 17:36:46;;;;;;;;;;;;;;;7.60;95.32;97847.22;4859398;29;19916;-66
2022/12/21 17:39:13;;;;;;;;;;;;;;;7.60;94.94;97847.22;4859736;29;19916;-66
2022/12/21 17:41:39;;;;;;;;;;;;;;;7.58;95.55;97842.13;4872250;29;19922;-66
2022/12/21 17:44:04;;;;;;;;;;;;;;;7.58;95.45;97854.34;4843401;29;20002;-66
2022/12/21 17:46:29;;;;;;;;;;;;;;;7.58;95.57;97859.56;4859729;29;20778;-66
2022/12/21 17:48:54;;;;;;;;;;;;;;;7.56;95.67;97858.78;4875036;29;20360;-68
2022/12/21 17:51:20;;;;;;;;;;;;;;;7.56;95.67;97856.19;4860797;29;20375;-70
2022/12/21 17:53:45;;;;;;;;;;;;;;;7.55;95.48;97859.72;4872705;29;20381;-66
2022/12/21 17:56:13;;;;;;;;;;;;;;;7.54;94.99;97858.06;4859633;29;19916;-69
2022/12/21 17:58:39;;;;;;;;;;;;;;;7.52;95.05;97849.47;4860242;29;20019;-67
2022/12/21 18:01:04;;;;;;;;;;;;;;;7.50;95.21;97848.72;4859221;29;20011;-67
2022/12/21 18:03:32;;;;;;;;;;;;;;;7.49;95.09;97855.72;4857720;29;19920;-67
2022/12/21 18:05:58;;;;;;;;;;;;;;;7.48;95.52;97861.88;4857093;29;19916;-69
2022/12/21 18:08:23;;;;;;;;;;;;;;;7.46;95.29;97855.06;4859324;29;19928;-67
2022/12/21 18:10:49;;;;;;;;;;;;;;;7.45;94.99;97859.47;4874828;29;20411;-67
2022/12/21 18:13:14;;;;;;;;;;;;;;;7.46;95.75;97860.28;4843943;29;20345;-68
2022/12/21 18:15:40;;;;;;;;;;;;;;;7.44;95.69;97851.75;4855916;29;19920;-67
2022/12/21 18:18:11;;;;;;;;;;;;;;;7.43;95.32;97848.25;4858864;29;20011;-67
2022/12/21 18:20:38;;;;;;;;;;;;;;;7.43;95.58;97863.09;4858326;29;19976;-67
2022/12/21 18:23:08;;;;;;;;;;;;;;;7.42;95.49;97857.03;4858687;29;20016;-70
2022/12/21 18:25:33;;;;;;;;;;;;;;;7.41;95.74;97868.41;4858319;29;20441;-67
2022/12/21 18:27:59;;;;;;;;;;;;;;;7.42;96.00;97866.63;4857799;29;19916;-67
2022/12/21 18:30:25;;;;;;;;;;;;;;;7.41;95.51;97854.53;4859020;29;19930;-67
2022/12/21 18:32:55;;;;;;;;;;;;;;;7.40;95.78;97860.66;4874756;29;19916;-68
2022/12/21 18:35:20;;;;;;;;;;;;;;;7.38;95.55;97864.22;4859027;29;19936;-69
2022/12/21 18:37:46;;;;;;;;;;;;;;;7.40;95.39;97863.28;4860788;29;19942;-67
2022/12/21 18:40:22;;;;;;;;;;;;;;;7.38;96.02;97859.00;4860201;29;19916;-67
2022/12/21 18:42:47;;;;;;;;;;;;;;;7.38;95.94;97848.56;4857737;29;20336;-67
2022/12/21 18:45:14;;;;;;;;;;;;;;;7.36;95.94;97854.78;4857496;29;20056;-69
2022/12/21 18:47:39;;;;;;;;;;;;;;;7.35;95.48;97853.13;4856289;29;19963;-67
2022/12/21 18:50:09;;;;;;;;;;;;;;;7.32;96.01;97854.16;4860304;29;20006;-66
2022/12/21 18:52:34;;;;;;;;;;;;;;;7.29;95.09;97854.31;4860151;29;20003;-66
2022/12/21 18:54:59;;;;;;;;;;;;;;;7.27;94.79;97855.38;4859733;29;20046;-66
2022/12/21 18:57:26;;;;;;;;;;;;;;;7.26;95.61;97853.69;4856579;29;20020;-66
2022/12/21 18:59:51;;;;;;;;;;;;;;;7.24;95.25;97845.94;4858097;29;19928;-65
2022/12/21 19:02:24;;;;;;;;;;;;;;;7.22;95.22;97845.19;4857140;29;19923;-66
2022/12/21 19:04:49;;;;;;;;;;;;;;;7.22;95.31;97845.19;4854952;29;19923;-65
2022/12/21 19:07:14;;;;;;;;;;;;;;;7.22;95.58;97844.38;4857848;29;19920;-66
2022/12/21 19:09:40;;;;;;;;;;;;;;;7.21;95.05;97837.47;4858460;29;20399;-66
2022/12/21 19:12:05;;;;;;;;;;;;;;;7.19;95.74;97842.81;4852096;29;19919;-65
2022/12/21 19:14:31;;;;;;;;;;;;;;;7.19;95.44;97836.72;4871754;29;20299;-67
2022/12/21 19:16:56;;;;;;;;;;;;;;;7.18;95.68;97835.88;4857525;29;19919;-66
2022/12/21 19:19:22;;;;;;;;;;;;;;;7.16;94.92;97832.56;4852486;29;19920;-65
2022/12/21 19:21:49;;;;;;;;;;;;;;;7.14;95.10;97827.41;4857530;29;19916;-65
2022/12/21 19:24:16;;;;;;;;;;;;;;;7.14;94.82;97830.03;4837967;29;20344;-66
2022/12/21 19:26:41;;;;;;;;;;;;;;;7.14;94.95;97818.75;4856325;29;20479;-67
2022/12/21 19:29:16;;;;;;;;;;;;;;;7.13;94.90;97817.09;4856407;29;19923;-65
2022/12/21 19:31:41;;;;;;;;;;;;;;;7.12;95.15;97820.59;4857413;29;19960;-67
2022/12/21 19:34:06;;;;;;;;;;;;;;;7.10;95.15;97818.09;4855152;29;19920;-66
2022/12/21 19:36:32;;;;;;;;;;;;;;;7.10;95.16;97814.66;4853594;29;20392;-65
2022/12/21 19:38:57;;;;;;;;;;;;;;;7.09;94.90;97811.22;4856495;29;19947;-66
2022/12/21 19:41:22;;;;;;;;;;;;;;;7.08;95.58;97813.91;4857225;29;20375;-67
2022/12/21 19:43:48;;;;;;;;;;;;;;;7.06;95.83;97818.38;4856691;29;20445;-67
2022/12/21 19:46:24;;;;;;;;;;;;;;;7.03;95.56;97811.59;4853653;29;19923;-66
2022/12/21 19:48:49;;;;;;;;;;;;;;;7.02;95.63;97809.91;4858641;29;19972;-66
2022/12/21 19:51:14;;;;;;;;;;;;;;;7.00;94.94;97800.50;4855809;29;20007;-67
2022/12/21 19:53:40;;;;;;;;;;;;;;;6.97;95.24;97800.69;4856678;29;20398;-65
2022/12/21 19:56:06;;;;;;;;;;;;;;;6.91;95.30;97791.44;4855115;29;19955;-67
2022/12/21 19:58:34;;;;;;;;;;;;;;;6.88;95.44;97802.94;4857196;29;19916;-66
2022/12/21 20:01:00;;;;;;;;;;;;;;;6.84;95.01;97796.19;4853535;29;20060;-66
2022/12/21 20:03:25;;;;;;;;;;;;;;;6.80;94.66;97799.91;4856247;29;20003;-66
2022/12/21 20:05:50;;;;;;;;;;;;;;;6.77;94.72;97810.53;4870783;29;19924;-66
2022/12/21 20:08:16;;;;;;;;;;;;;;;6.73;94.97;97814.25;4854943;29;20387;-67
2022/12/21 20:10:41;;;;;;;;;;;;;;;6.70;94.75;97809.22;4855710;29;19968;-68
2022/12/21 20:13:10;;;;;;;;;;;;;;;6.68;95.21;97805.03;4858320;29;20408;-67
2022/12/21 20:15:36;;;;;;;;;;;;;;;6.65;95.38;97800.84;4856365;29;19968;-67
2022/12/21 20:18:01;;;;;;;;;;;;;;;6.62;95.31;97796.63;4854710;29;19920;-66
2022/12/21 20:20:26;;;;;;;;;;;;;;;6.61;94.69;97799.34;4863681;29;19927;-67
2022/12/21 20:22:53;;;;;;;;;;;;;;;6.60;94.57;97795.03;4870740;29;19924;-66
2022/12/21 20:25:18;;;;;;;;;;;;;;;6.59;94.66;97789.00;4856416;29;19920;-67
2022/12/21 20:27:44;;;;;;;;;;;;;;;6.58;94.85;97795.16;4856142;29;20069;-67
2022/12/21 20:30:13;;;;;;;;;;;;;;;6.57;94.32;97801.31;4849637;29;20297;-66
2022/12/21 20:32:39;;;;;;;;;;;;;;;6.54;94.92;97793.66;4855514;29;19916;-67
2022/12/21 20:35:04;;;;;;;;;;;;;;;6.53;94.39;97804.16;4858393;29;20332;-67
2022/12/21 20:37:29;;;;;;;;;;;;;;;6.51;94.87;97799.03;4857417;29;20304;-67
2022/12/21 20:39:54;;;;;;;;;;;;;;;6.51;94.05;97800.81;4858067;29;19999;-66
2022/12/21 20:45:14;;;;;;;;;;;;;;;6.48;93.95;97788.81;4851084;29;19972;-67
2022/12/21 20:47:39;;;;;;;;;;;;;;;6.47;93.87;97787.13;4857081;29;20343;-67
2022/12/21 20:50:05;;;;;;;;;;;;;;;6.46;93.75;97790.66;4857862;29;19916;-66
2022/12/21 20:52:30;;;;;;;;;;;;;;;6.45;94.24;97786.38;4857176;29;20386;-66
2022/12/21 20:57:39;;;;;;;;;;;;;;;6.42;93.81;97779.56;4855294;29;19970;-66
2022/12/21 21:00:05;;;;;;;;;;;;;;;6.41;93.78;97777.91;4853762;29;19963;-66
2022/12/21 21:02:31;;;;;;;;;;;;;;;6.40;93.72;97783.19;4855594;29;19963;-66
2022/12/21 21:04:56;;;;;;;;;;;;;;;6.38;93.90;97783.28;4854616;29;19951;-66